createdAt,value
2016-07-19T06:58:48.389Z,74710
2016-07-19T06:58:56.815Z,74704
2016-07-19T06:59:05.976Z,74705
2016-07-19T06:59:14.762Z,74703
2016-07-19T06:59:23.472Z,74702
2016-07-19T06:59:32.204Z,74705
2016-07-19T06:59:41.005Z,74706
2016-07-19T06:59:49.756Z,74702
2016-07-19T06:59:58.543Z,74702
2016-07-19T07:00:07.279Z,74701
2016-07-19T07:00:15.977Z,74700
2016-07-19T07:00:25.397Z,74700
2016-07-19T07:00:34.094Z,74705
2016-07-19T07:00:42.846Z,74704
2016-07-19T07:00:51.620Z,74705
2016-07-19T07:01:00.348Z,74705
2016-07-19T07:01:09.069Z,74702
2016-07-19T07:01:17.813Z,74703
2016-07-19T07:01:26.608Z,74702
2016-07-19T07:01:35.331Z,74705
2016-07-19T07:01:44.083Z,74701
2016-07-19T07:01:52.853Z,74699
2016-07-19T07:02:02.282Z,74701
2016-07-19T07:02:11.011Z,74700
2016-07-19T07:02:19.795Z,74702
2016-07-19T07:02:28.523Z,74704
2016-07-19T07:02:37.296Z,74705
2016-07-19T07:02:46.028Z,74707
2016-07-19T07:02:54.787Z,74702
2016-07-19T07:03:04.364Z,74704
2016-07-19T07:03:13.112Z,74700
2016-07-19T07:03:21.864Z,74703
2016-07-19T07:03:31.324Z,74706
2016-07-19T07:03:40.083Z,74705
2016-07-19T07:03:48.839Z,74706
2016-07-19T07:03:57.619Z,74705
2016-07-19T07:04:06.309Z,74701
2016-07-19T07:04:15.084Z,74704
2016-07-19T07:23:45.263Z,74711
2016-07-19T07:23:54.027Z,74713
2016-07-19T07:39:36.032Z,74721
2016-07-19T07:39:44.751Z,74724
2016-07-19T07:39:53.538Z,74722
2016-07-19T07:40:02.282Z,74722
2016-07-19T07:40:11.014Z,74722
2016-07-19T07:40:19.758Z,74721
2016-07-19T07:40:28.489Z,74723
2016-07-19T07:40:37.289Z,74722
2016-07-19T07:40:45.974Z,74723
2016-07-19T07:40:54.640Z,74724
2016-07-19T07:41:03.363Z,74722
2016-07-19T07:41:12.171Z,74722
2016-07-19T07:41:20.891Z,74721
2016-07-19T07:41:29.689Z,74721
2016-07-19T07:41:38.413Z,74722
2016-07-19T07:41:47.839Z,74722
2016-07-19T07:41:56.561Z,74720
2016-07-19T07:42:05.334Z,74722
2016-07-19T07:42:14.111Z,74719
2016-07-19T07:42:22.909Z,74723
2016-07-19T07:42:31.664Z,74721
2016-07-19T07:42:40.469Z,74722
2016-07-19T07:42:49.873Z,74723
2016-07-19T07:42:58.627Z,74721
2016-07-19T07:43:07.381Z,74723
2016-07-19T07:43:16.123Z,74720
2016-07-19T07:43:24.811Z,74727
2016-07-19T07:43:33.574Z,74725
2016-07-19T07:43:42.309Z,74722
2016-07-19T07:43:51.073Z,74722
2016-07-19T07:43:59.801Z,74723
2016-07-19T07:44:08.490Z,74723
2016-07-19T07:44:17.276Z,74726
2016-07-19T07:59:28.220Z,74724
2016-07-19T07:59:36.966Z,74723
2016-07-19T07:59:45.735Z,74723
2016-07-19T07:59:54.454Z,74724
2016-07-19T08:00:03.224Z,74723
2016-07-19T08:00:11.964Z,74725
2016-07-19T08:00:20.698Z,74726
2016-07-19T08:00:29.449Z,74723
2016-07-19T08:00:38.139Z,74726
2016-07-19T08:00:46.808Z,74726
2016-07-19T08:00:55.530Z,74728
2016-07-19T08:01:04.316Z,74727
2016-07-19T08:01:13.061Z,74726
2016-07-19T08:01:21.810Z,74723
2016-07-19T08:01:30.474Z,74723
2016-07-19T08:01:39.159Z,74723
2016-07-19T08:01:48.527Z,74728
2016-07-19T08:01:57.294Z,74725
2016-07-19T08:02:06.036Z,74726
2016-07-19T08:02:14.835Z,74725
2016-07-19T08:02:24.386Z,74725
2016-07-19T08:02:33.127Z,74723
2016-07-19T08:02:41.836Z,74722
2016-07-19T08:02:50.569Z,74720
2016-07-19T08:02:59.325Z,74717
2016-07-19T08:03:08.088Z,74721
2016-07-19T08:03:16.779Z,74721
2016-07-19T08:03:25.543Z,74721
2016-07-19T08:03:34.252Z,74723
2016-07-19T08:03:43.000Z,74720
2016-07-19T08:03:51.696Z,74733
2016-07-19T08:04:00.383Z,74738
2016-07-19T08:04:09.165Z,74804
2016-07-19T08:04:17.895Z,74809
2016-07-19T08:04:26.650Z,74786
2016-07-19T08:04:35.408Z,74789
2016-07-19T08:04:44.109Z,74791
2016-07-19T08:04:52.917Z,74780
2016-07-19T08:05:01.652Z,74782
2016-07-19T08:05:10.397Z,74780
2016-07-19T08:05:19.098Z,74758
2016-07-19T08:05:27.809Z,74757
2016-07-19T08:05:36.572Z,74779
2016-07-19T08:05:45.321Z,74759
2016-07-19T08:05:54.041Z,74767
2016-07-19T08:06:02.748Z,74769
2016-07-19T08:06:11.480Z,74769
2016-07-19T08:06:20.202Z,74768
2016-07-19T08:06:28.946Z,74779
2016-07-19T08:06:37.700Z,74745
2016-07-19T08:06:46.407Z,74758
2016-07-19T08:06:55.148Z,74772
2016-07-19T08:07:03.886Z,74770
2016-07-19T08:07:12.643Z,74755
2016-07-19T08:07:21.384Z,74757
2016-07-19T08:07:30.069Z,74771
2016-07-19T08:07:38.820Z,74754
2016-07-19T08:07:47.479Z,74756
2016-07-19T08:07:56.208Z,74762
2016-07-19T08:08:05.014Z,74769
2016-07-19T08:08:13.810Z,74770
2016-07-19T08:08:22.604Z,74769
2016-07-19T08:08:31.346Z,74759
2016-07-19T08:08:40.108Z,74756
2016-07-19T08:08:48.882Z,74742
2016-07-19T08:08:57.604Z,74769
2016-07-19T08:09:06.310Z,74773
2016-07-19T08:09:15.096Z,74767
2016-07-19T08:09:23.777Z,74766
2016-07-19T08:09:32.490Z,74768
2016-07-19T08:09:41.215Z,74767
2016-07-19T08:09:49.962Z,74747
2016-07-19T08:09:59.430Z,74766
2016-07-19T08:10:08.206Z,74757
2016-07-19T08:10:16.895Z,74752
2016-07-19T08:10:25.647Z,74756
2016-07-19T08:10:34.386Z,74761
2016-07-19T08:10:43.204Z,74755
2016-07-19T08:10:52.020Z,74751
2016-07-19T08:11:00.771Z,74750
2016-07-19T08:11:09.537Z,74753
2016-07-19T08:11:18.316Z,74752
2016-07-19T08:11:27.052Z,74771
2016-07-19T08:11:35.754Z,74754
2016-07-19T08:11:44.536Z,74769
2016-07-19T08:11:53.258Z,74768
2016-07-19T08:12:01.969Z,74767
2016-07-19T08:12:10.733Z,74753
2016-07-19T08:12:19.491Z,74742
2016-07-19T08:12:28.242Z,74768
2016-07-19T08:12:36.997Z,74754
2016-07-19T08:12:45.722Z,74756
2016-07-19T08:12:54.466Z,74754
2016-07-19T08:13:03.233Z,74754
2016-07-19T08:13:11.999Z,74751
2016-07-19T08:13:20.709Z,74747
2016-07-19T08:13:29.491Z,74749
2016-07-19T08:13:38.209Z,74735
2016-07-19T08:13:46.933Z,74755
2016-07-19T08:13:55.657Z,74740
2016-07-19T08:14:04.392Z,74737
2016-07-19T08:14:13.117Z,74746
2016-07-19T08:14:21.861Z,74751
2016-07-19T08:14:30.563Z,74727
2016-07-19T08:14:39.317Z,74714
2016-07-19T08:14:48.071Z,74731
2016-07-19T08:14:56.845Z,74755
2016-07-19T08:15:05.608Z,74746
2016-07-19T08:15:14.323Z,74750
2016-07-19T08:15:23.066Z,74750
2016-07-19T08:15:31.780Z,74746
2016-07-19T08:15:40.535Z,74753
2016-07-19T08:15:49.239Z,74746
2016-07-19T08:15:58.010Z,74741
2016-07-19T08:16:06.740Z,74748
2016-07-19T08:16:15.460Z,74736
2016-07-19T08:16:24.212Z,74742
2016-07-19T08:16:32.988Z,74747
2016-07-19T08:16:41.783Z,74741
2016-07-19T08:16:50.536Z,74756
2016-07-19T08:16:59.291Z,74749
2016-07-19T08:17:07.996Z,74734
2016-07-19T08:17:16.787Z,74761
2016-07-19T08:17:25.519Z,74755
2016-07-19T08:17:34.271Z,74748
2016-07-19T08:17:42.993Z,74746
2016-07-19T08:17:51.758Z,74741
2016-07-19T08:18:00.503Z,74740
2016-07-19T08:18:09.254Z,74737
2016-07-19T08:18:17.960Z,74738
2016-07-19T08:18:26.716Z,74739
2016-07-19T08:18:35.473Z,74748
2016-07-19T08:18:44.250Z,74748
2016-07-19T08:18:53.027Z,74742
2016-07-19T08:19:01.785Z,74760
2016-07-19T08:19:10.605Z,74744
2016-07-19T08:19:19.350Z,74741
2016-07-19T08:19:28.146Z,74740
2016-07-19T08:19:36.884Z,74761
2016-07-19T08:19:45.640Z,74735
2016-07-19T08:19:54.399Z,74745
2016-07-19T08:20:03.133Z,74751
2016-07-19T08:20:11.882Z,74755
2016-07-19T08:20:20.610Z,74771
2016-07-19T08:20:29.351Z,74751
2016-07-19T08:20:38.092Z,74749
2016-07-19T08:20:46.790Z,74757
2016-07-19T08:20:55.574Z,74748
2016-07-19T08:21:04.322Z,74756
2016-07-19T08:21:13.040Z,74759
2016-07-19T08:21:21.771Z,74748
2016-07-19T08:21:30.528Z,74748
2016-07-19T08:21:39.318Z,74740
2016-07-19T08:21:48.035Z,74742
2016-07-19T08:21:56.726Z,74745
2016-07-19T08:22:05.443Z,74737
2016-07-19T08:22:14.133Z,74742
2016-07-19T08:22:23.559Z,74737
2016-07-19T08:22:32.241Z,74752
2016-07-19T08:22:40.976Z,74746
2016-07-19T08:22:49.687Z,74741
2016-07-19T08:22:58.413Z,74746
2016-07-19T08:23:07.861Z,74757
2016-07-19T08:23:16.626Z,74763
2016-07-19T08:23:25.348Z,74751
2016-07-19T08:23:34.058Z,74757
2016-07-19T08:23:42.786Z,74744
2016-07-19T08:23:51.508Z,74751
2016-07-19T08:24:00.258Z,74755
2016-07-19T08:24:09.016Z,74746
2016-07-19T08:24:17.779Z,74757
2016-07-19T08:24:26.493Z,74745
2016-07-19T08:24:35.271Z,74746
2016-07-19T08:24:44.039Z,74741
2016-07-19T08:24:52.796Z,74749
2016-07-19T08:25:01.582Z,74739
2016-07-19T08:25:10.302Z,74754
2016-07-19T08:25:19.061Z,74745
2016-07-19T08:25:27.767Z,74744
2016-07-19T08:25:36.497Z,74743
2016-07-19T08:25:45.278Z,74742
2016-07-19T08:25:53.977Z,74740
2016-07-19T08:26:02.658Z,74751
2016-07-19T08:26:11.361Z,74749
2016-07-19T08:26:20.150Z,74739
2016-07-19T08:26:28.863Z,74740
2016-07-19T08:26:37.553Z,74744
2016-07-19T08:26:46.242Z,74750
2016-07-19T08:26:54.960Z,74741
2016-07-19T08:27:03.690Z,74744
2016-07-19T08:27:12.462Z,74750
2016-07-19T08:27:21.218Z,74749
2016-07-19T08:27:29.972Z,74739
2016-07-19T08:27:38.743Z,74749
2016-07-19T08:27:47.529Z,74749
2016-07-19T08:27:56.231Z,74732
2016-07-19T08:28:04.974Z,74742
2016-07-19T08:28:13.642Z,74736
2016-07-19T08:28:22.363Z,74746
2016-07-19T08:28:31.081Z,74766
2016-07-19T08:28:39.809Z,74708
2016-07-19T08:28:48.557Z,74724
2016-07-19T08:28:57.910Z,74729
2016-07-19T08:29:06.592Z,74731
2016-07-19T08:29:15.359Z,74735
2016-07-19T08:29:24.116Z,74748
2016-07-19T08:29:32.834Z,74744
2016-07-19T08:29:41.563Z,74739
2016-07-19T08:29:50.282Z,74751
2016-07-19T08:29:59.004Z,74758
2016-07-19T08:30:07.698Z,74736
2016-07-19T08:30:16.492Z,74743
2016-07-19T08:30:25.207Z,74757
2016-07-19T08:30:33.946Z,74756
2016-07-19T08:30:42.679Z,74751
2016-07-19T08:30:51.399Z,74736
2016-07-19T08:31:00.119Z,74737
2016-07-19T08:31:08.893Z,74760
2016-07-19T08:31:17.642Z,74743
2016-07-19T08:31:26.361Z,74741
2016-07-19T08:31:35.089Z,74738
2016-07-19T08:31:43.861Z,74728
2016-07-19T08:31:52.638Z,74735
2016-07-19T08:32:01.369Z,74733
2016-07-19T08:32:10.104Z,74726
2016-07-19T08:32:18.845Z,74749
2016-07-19T08:32:27.568Z,74748
2016-07-19T08:32:36.317Z,74720
2016-07-19T08:32:45.016Z,74734
2016-07-19T08:32:53.716Z,74733
2016-07-19T08:33:02.490Z,74735
2016-07-19T08:33:11.259Z,74750
2016-07-19T08:33:20.018Z,74740
2016-07-19T08:33:28.726Z,74727
2016-07-19T08:33:37.454Z,74734
2016-07-19T08:33:46.195Z,74740
2016-07-19T08:33:54.961Z,74730
2016-07-19T08:34:03.654Z,74737
2016-07-19T08:34:12.443Z,74739
2016-07-19T08:34:21.261Z,74746
2016-07-19T08:34:30.016Z,74753
2016-07-19T08:34:38.769Z,74734
2016-07-19T08:34:47.547Z,74739
2016-07-19T08:34:56.338Z,74747
2016-07-19T08:35:05.051Z,74744
2016-07-19T08:35:13.760Z,74735
2016-07-19T08:35:22.507Z,74744
2016-07-19T08:35:31.200Z,74758
2016-07-19T08:35:39.927Z,74734
2016-07-19T08:35:48.716Z,74735
2016-07-19T08:35:57.463Z,74745
2016-07-19T08:36:06.228Z,74738
2016-07-19T08:36:15.004Z,74742
2016-07-19T08:36:23.754Z,74732
2016-07-19T08:36:32.518Z,74739
2016-07-19T08:36:41.268Z,74746
2016-07-19T08:36:49.990Z,74728
2016-07-19T08:36:58.723Z,74726
2016-07-19T08:37:07.534Z,74743
2016-07-19T08:37:16.909Z,74721
2016-07-19T08:37:25.621Z,74756
2016-07-19T08:37:34.372Z,74732
2016-07-19T08:37:43.148Z,74745
2016-07-19T08:37:51.880Z,74738
2016-07-19T08:38:00.610Z,74751
2016-07-19T08:38:09.341Z,74722
2016-07-19T08:38:18.129Z,74747
2016-07-19T08:38:26.819Z,74739
2016-07-19T08:38:35.573Z,74746
2016-07-19T08:38:44.236Z,74738
2016-07-19T08:38:53.087Z,74736
2016-07-19T08:39:01.885Z,74767
2016-07-19T08:39:10.639Z,74737
2016-07-19T08:39:19.418Z,74757
2016-07-19T08:39:28.143Z,74746
2016-07-19T08:39:36.836Z,74734
2016-07-19T08:39:45.578Z,74755
2016-07-19T08:39:54.320Z,74752
2016-07-19T08:40:03.071Z,74741
2016-07-19T08:40:11.766Z,74746
2016-07-19T08:40:20.502Z,74748
2016-07-19T08:40:29.248Z,74750
2016-07-19T08:40:37.942Z,74740
2016-07-19T08:40:46.971Z,74748
2016-07-19T08:40:56.415Z,74730
2016-07-19T08:41:05.149Z,74747
2016-07-19T08:41:13.911Z,74743
2016-07-19T08:41:22.654Z,74766
2016-07-19T08:41:31.437Z,74753
2016-07-19T08:41:40.189Z,74737
2016-07-19T08:41:48.879Z,74751
2016-07-19T08:41:57.631Z,74760
2016-07-19T08:42:06.355Z,74749
2016-07-19T08:42:15.103Z,74740
2016-07-19T08:42:23.910Z,74768
2016-07-19T08:42:32.666Z,74761
2016-07-19T08:42:41.396Z,74735
2016-07-19T08:42:50.158Z,74768
2016-07-19T08:42:58.880Z,74768
2016-07-19T08:43:07.614Z,74753
2016-07-19T08:43:17.128Z,74750
2016-07-19T08:43:25.880Z,74743
2016-07-19T08:43:34.651Z,74753
2016-07-19T08:43:43.394Z,74745
2016-07-19T08:43:52.066Z,74757
2016-07-19T08:44:00.784Z,74751
2016-07-19T08:44:09.530Z,74757
2016-07-19T08:44:18.249Z,74754
2016-07-19T08:44:26.970Z,74748
2016-07-19T08:44:35.678Z,74766
2016-07-19T08:44:44.504Z,74742
2016-07-19T08:44:53.260Z,74757
2016-07-19T08:45:02.008Z,74756
2016-07-19T08:45:10.710Z,74726
2016-07-19T08:45:19.464Z,74757
2016-07-19T08:45:28.221Z,74741
2016-07-19T08:45:36.913Z,74767
2016-07-19T08:45:45.633Z,74743
2016-07-19T08:45:54.329Z,74746
2016-07-19T08:46:03.764Z,74739
2016-07-19T08:46:12.518Z,74755
2016-07-19T08:46:21.285Z,74757
2016-07-19T08:46:30.040Z,74758
2016-07-19T08:46:38.797Z,74746
2016-07-19T08:46:47.496Z,74731
2016-07-19T08:46:56.192Z,74735
2016-07-19T08:47:04.919Z,74732
2016-07-19T08:47:13.610Z,74748
2016-07-19T08:47:22.311Z,74736
2016-07-19T08:47:31.032Z,74741
2016-07-19T08:47:39.854Z,74739
2016-07-19T08:47:48.610Z,74744
2016-07-19T08:47:57.402Z,74743
2016-07-19T08:48:06.125Z,74761
2016-07-19T08:48:14.916Z,74760
2016-07-19T08:48:23.597Z,74734
2016-07-19T08:48:32.370Z,74744
2016-07-19T08:48:41.115Z,74755
2016-07-19T08:48:49.789Z,74748
2016-07-19T08:48:59.217Z,74760
2016-07-19T08:49:07.971Z,74731
2016-07-19T08:49:16.675Z,74752
2016-07-19T08:49:25.488Z,74748
2016-07-19T08:49:34.311Z,74764
2016-07-19T08:49:43.033Z,74760
2016-07-19T08:49:51.744Z,74743
2016-07-19T08:50:00.453Z,74737
2016-07-19T08:50:09.204Z,74744
2016-07-19T08:50:17.962Z,74753
2016-07-19T08:50:26.666Z,74746
2016-07-19T08:50:35.410Z,74748
2016-07-19T08:50:44.106Z,74748
2016-07-19T08:50:52.834Z,74750
2016-07-19T08:51:01.588Z,74743
2016-07-19T08:51:10.269Z,74759
2016-07-19T08:51:18.996Z,74749
2016-07-19T08:51:27.765Z,74752
2016-07-19T08:51:36.481Z,74748
2016-07-19T08:51:45.209Z,74744
2016-07-19T08:51:53.935Z,74746
2016-07-19T08:52:02.668Z,74738
2016-07-19T08:52:11.443Z,74746
2016-07-19T08:52:20.177Z,74738
2016-07-19T08:52:28.966Z,74748
2016-07-19T08:52:38.370Z,74737
2016-07-19T08:52:47.115Z,74751
2016-07-19T08:52:55.884Z,74761
2016-07-19T08:53:04.577Z,74744
2016-07-19T08:53:13.367Z,74748
2016-07-19T08:53:22.191Z,74742
2016-07-19T08:53:30.987Z,74756
2016-07-19T08:53:39.784Z,74742
2016-07-19T08:53:48.538Z,74763
2016-07-19T08:53:57.213Z,74744
2016-07-19T08:54:05.934Z,74749
2016-07-19T08:54:14.664Z,74750
2016-07-19T08:54:23.395Z,74768
2016-07-19T08:54:32.152Z,74746
2016-07-19T08:54:40.855Z,74739
2016-07-19T08:54:49.638Z,74727
2016-07-19T08:54:58.342Z,74743
2016-07-19T08:55:07.124Z,74754
2016-07-19T08:55:15.828Z,74732
2016-07-19T08:55:24.530Z,74742
2016-07-19T08:55:33.284Z,74744
2016-07-19T08:55:42.030Z,74753
2016-07-19T08:55:51.533Z,74732
2016-07-19T08:56:00.312Z,74744
2016-07-19T08:56:09.070Z,74755
2016-07-19T08:56:17.769Z,74747
2016-07-19T08:56:26.491Z,74739
2016-07-19T08:56:35.238Z,74726
2016-07-19T08:56:43.943Z,74739
2016-07-19T08:56:52.731Z,74739
2016-07-19T08:57:01.448Z,74746
2016-07-19T08:57:10.207Z,74756
2016-07-19T08:57:18.903Z,74747
2016-07-19T08:57:27.666Z,74732
2016-07-19T08:57:36.448Z,74751
2016-07-19T08:57:45.199Z,74737
2016-07-19T08:57:54.650Z,74734
2016-07-19T08:58:03.400Z,74744
2016-07-19T08:58:12.104Z,74748
2016-07-19T08:58:20.819Z,74744
2016-07-19T08:58:29.587Z,74748
2016-07-19T08:58:38.373Z,74747
2016-07-19T08:58:47.116Z,74739
2016-07-19T08:58:55.913Z,74736
2016-07-19T08:59:04.649Z,74736
2016-07-19T08:59:13.408Z,74733
2016-07-19T08:59:22.153Z,74755
2016-07-19T08:59:30.938Z,74752
2016-07-19T08:59:39.650Z,74720
2016-07-19T08:59:48.991Z,74739
2016-07-19T08:59:57.696Z,74737
2016-07-19T09:00:06.485Z,74747
2016-07-19T09:00:15.898Z,74743
2016-07-19T09:00:24.591Z,74756
2016-07-19T09:00:33.381Z,74741
2016-07-19T09:00:42.106Z,74738
2016-07-19T09:00:51.589Z,74748
2016-07-19T09:01:00.286Z,74748
2016-07-19T09:01:09.071Z,74748
2016-07-19T09:01:17.819Z,74735
2016-07-19T09:01:26.515Z,74738
2016-07-19T09:01:35.270Z,74737
2016-07-19T09:01:43.990Z,74742
2016-07-19T09:01:52.710Z,74736
2016-07-19T09:02:01.429Z,74740
2016-07-19T09:02:10.159Z,74741
2016-07-19T09:02:18.906Z,74727
2016-07-19T09:02:27.593Z,74750
2016-07-19T09:02:36.350Z,74743
2016-07-19T09:02:45.071Z,74743
2016-07-19T09:02:53.851Z,74745
2016-07-19T09:03:02.609Z,74733
2016-07-19T09:03:11.332Z,74749
2016-07-19T09:03:20.721Z,74755
2016-07-19T09:03:29.545Z,74738
2016-07-19T09:03:38.342Z,74753
2016-07-19T09:03:47.124Z,74752
2016-07-19T09:03:55.832Z,74763
2016-07-19T09:04:04.528Z,74752
2016-07-19T09:04:13.254Z,74744
2016-07-19T09:04:21.928Z,74749
2016-07-19T09:04:30.681Z,74756
2016-07-19T09:04:39.370Z,74751
2016-07-19T09:04:48.047Z,74752
2016-07-19T09:04:56.805Z,74745
2016-07-19T09:05:05.495Z,74749
2016-07-19T09:05:14.259Z,74757
2016-07-19T09:05:23.011Z,74753
2016-07-19T09:05:31.727Z,74759
2016-07-19T09:05:40.460Z,74756
2016-07-19T09:05:49.249Z,74749
2016-07-19T09:05:57.981Z,74749
2016-07-19T09:06:06.732Z,74749
2016-07-19T09:06:15.496Z,74757
2016-07-19T09:06:24.220Z,74754
2016-07-19T09:06:33.041Z,74744
2016-07-19T09:06:41.803Z,74757
2016-07-19T09:06:50.517Z,74744
2016-07-19T09:06:59.241Z,74769
2016-07-19T09:07:07.945Z,74749
2016-07-19T09:07:17.376Z,74763
2016-07-19T09:07:26.116Z,74756
2016-07-19T09:07:34.895Z,74740
2016-07-19T09:07:43.627Z,74759
2016-07-19T09:07:52.361Z,74743
2016-07-19T09:08:01.150Z,74754
2016-07-19T09:08:09.866Z,74758
2016-07-19T09:08:18.563Z,74745
2016-07-19T09:08:27.255Z,74748
2016-07-19T09:08:35.994Z,74736
2016-07-19T09:08:44.789Z,74745
2016-07-19T09:08:53.487Z,74750
2016-07-19T09:09:02.160Z,74760
2016-07-19T09:09:10.873Z,74750
2016-07-19T09:09:19.658Z,74760
2016-07-19T09:09:28.451Z,74754
2016-07-19T09:09:37.171Z,74753
2016-07-19T09:09:45.920Z,74759
2016-07-19T09:09:54.657Z,74760
2016-07-19T09:10:03.406Z,74749
2016-07-19T09:10:12.114Z,74754
2016-07-19T09:10:20.862Z,74745
2016-07-19T09:10:29.631Z,74755
2016-07-19T09:10:38.348Z,74746
2016-07-19T09:10:47.056Z,74760
2016-07-19T09:10:55.843Z,74763
2016-07-19T09:11:04.630Z,74751
2016-07-19T09:11:13.353Z,74738
2016-07-19T09:11:22.106Z,74755
2016-07-19T09:11:30.845Z,74752
2016-07-19T09:11:39.635Z,74742
2016-07-19T09:11:48.454Z,74753
2016-07-19T09:11:57.231Z,74778
2016-07-19T09:12:05.928Z,74764
2016-07-19T09:12:14.655Z,74751
2016-07-19T09:12:23.374Z,74774
2016-07-19T09:12:32.095Z,74759
2016-07-19T09:12:40.752Z,74754
2016-07-19T09:12:49.478Z,74764
2016-07-19T09:12:58.182Z,74768
2016-07-19T09:13:06.961Z,74772
2016-07-19T09:13:15.689Z,74756
2016-07-19T09:13:24.394Z,74754
2016-07-19T09:13:33.180Z,74771
2016-07-19T09:13:41.892Z,74758
2016-07-19T09:13:51.311Z,74751
2016-07-19T09:13:59.998Z,74755
2016-07-19T09:14:08.787Z,74758
2016-07-19T09:14:17.573Z,74744
2016-07-19T09:14:26.339Z,74753
2016-07-19T09:14:35.056Z,74757
2016-07-19T09:14:43.803Z,74742
2016-07-19T09:14:52.543Z,74761
2016-07-19T09:15:01.319Z,74752
2016-07-19T09:15:09.975Z,74757
2016-07-19T09:15:18.698Z,74738
2016-07-19T09:15:27.470Z,74756
2016-07-19T09:15:36.152Z,74773
2016-07-19T09:15:44.888Z,74777
2016-07-19T09:15:53.709Z,74773
2016-07-19T09:16:02.481Z,74774
2016-07-19T09:16:11.238Z,74754
2016-07-19T09:16:19.996Z,74774
2016-07-19T09:16:28.717Z,74777
2016-07-19T09:16:37.418Z,74750
2016-07-19T09:16:46.130Z,74765
2016-07-19T09:16:54.866Z,74753
2016-07-19T09:17:03.549Z,74764
2016-07-19T09:17:12.285Z,74789
2016-07-19T09:17:21.016Z,74778
2016-07-19T09:17:29.794Z,74769
2016-07-19T09:17:38.562Z,74771
2016-07-19T09:17:47.606Z,74775
2016-07-19T09:17:56.321Z,74768
2016-07-19T09:18:05.061Z,74768
2016-07-19T09:18:13.811Z,74763
2016-07-19T09:18:22.526Z,74765
2016-07-19T09:18:31.319Z,74772
2016-07-19T09:18:40.043Z,74745
2016-07-19T09:18:48.748Z,74736
2016-07-19T09:18:57.563Z,74792
2016-07-19T09:19:06.287Z,74779
2016-07-19T09:19:15.041Z,74770
2016-07-19T09:19:23.723Z,74788
2016-07-19T09:19:32.476Z,74784
2016-07-19T09:19:41.172Z,74777
2016-07-19T09:19:49.921Z,74751
2016-07-19T09:19:58.639Z,74789
2016-07-19T09:20:07.336Z,74754
2016-07-19T09:20:16.005Z,74750
2016-07-19T09:20:24.744Z,74757
2016-07-19T09:20:33.457Z,74778
2016-07-19T09:20:42.162Z,74766
2016-07-19T09:20:50.921Z,74741
2016-07-19T09:20:59.700Z,74762
2016-07-19T09:21:08.408Z,74777
2016-07-19T09:21:17.201Z,74763
2016-07-19T09:21:25.898Z,74777
2016-07-19T09:21:34.623Z,74773
2016-07-19T09:21:43.352Z,74752
2016-07-19T09:21:52.123Z,74754
2016-07-19T09:22:01.785Z,74748
2016-07-19T09:22:10.486Z,74764
2016-07-19T09:22:19.263Z,74772
2016-07-19T09:22:27.969Z,74764
2016-07-19T09:22:36.757Z,74770
2016-07-19T09:22:45.558Z,74766
2016-07-19T09:22:54.348Z,74752
2016-07-19T09:23:03.103Z,74757
2016-07-19T09:23:11.916Z,74751
2016-07-19T09:23:20.673Z,74752
2016-07-19T09:23:29.432Z,74753
2016-07-19T09:23:38.160Z,74757
2016-07-19T09:23:46.983Z,74752
2016-07-19T09:23:55.746Z,74773
2016-07-19T09:24:04.502Z,74772
2016-07-19T09:24:13.293Z,74763
2016-07-19T09:24:22.021Z,74757
2016-07-19T09:24:30.774Z,74770
2016-07-19T09:24:39.467Z,74753
2016-07-19T09:24:48.197Z,74748
2016-07-19T09:24:56.876Z,74762
2016-07-19T09:25:05.610Z,74759
2016-07-19T09:25:14.398Z,74760
2016-07-19T09:25:23.121Z,74753
2016-07-19T09:25:31.850Z,74770
2016-07-19T09:25:40.598Z,74773
2016-07-19T09:25:49.345Z,74758
2016-07-19T09:25:58.084Z,74762
2016-07-19T09:26:06.844Z,74773
2016-07-19T09:26:15.620Z,74756
2016-07-19T09:26:24.340Z,74752
2016-07-19T09:26:33.067Z,74788
2016-07-19T09:26:41.781Z,74773
2016-07-19T09:26:50.523Z,74763
2016-07-19T09:26:59.317Z,74757
2016-07-19T09:27:08.046Z,74758
2016-07-19T09:27:16.755Z,74757
2016-07-19T09:27:25.538Z,74758
2016-07-19T09:27:34.206Z,74761
2016-07-19T09:27:43.023Z,74756
2016-07-19T09:27:51.747Z,74756
2016-07-19T09:28:00.466Z,74769
2016-07-19T09:28:09.130Z,74768
2016-07-19T09:28:17.897Z,74753
2016-07-19T09:28:26.655Z,74775
2016-07-19T09:28:35.448Z,74776
2016-07-19T09:28:44.206Z,74767
2016-07-19T09:28:52.968Z,74755
2016-07-19T09:29:01.729Z,74783
2016-07-19T09:29:10.487Z,74765
2016-07-19T09:29:19.232Z,74766
2016-07-19T09:29:27.998Z,74771
2016-07-19T09:29:36.784Z,74756
2016-07-19T09:29:45.535Z,74766
2016-07-19T09:29:54.228Z,74771
2016-07-19T09:30:03.021Z,74774
2016-07-19T09:30:11.728Z,74774
2016-07-19T09:30:20.486Z,74769
2016-07-19T09:30:29.201Z,74760
2016-07-19T09:30:37.962Z,74770
2016-07-19T09:30:46.714Z,74774
2016-07-19T09:30:55.448Z,74772
2016-07-19T09:31:04.127Z,74771
2016-07-19T09:31:12.860Z,74776
2016-07-19T09:31:21.647Z,74784
2016-07-19T09:31:30.404Z,74767
2016-07-19T09:31:39.162Z,74768
2016-07-19T09:31:47.955Z,74771
2016-07-19T09:31:56.723Z,74764
2016-07-19T09:32:05.514Z,74747
2016-07-19T09:32:14.244Z,74756
2016-07-19T09:32:22.922Z,74753
2016-07-19T09:32:31.678Z,74761
2016-07-19T09:32:40.435Z,74771
2016-07-19T09:32:49.206Z,74786
2016-07-19T09:32:57.961Z,74759
2016-07-19T09:33:06.711Z,74763
2016-07-19T09:33:15.448Z,74746
2016-07-19T09:33:24.134Z,74774
2016-07-19T09:33:32.879Z,74782
2016-07-19T09:33:41.601Z,74772
2016-07-19T09:33:50.385Z,74771
2016-07-19T09:33:59.133Z,74770
2016-07-19T09:34:07.896Z,74778
2016-07-19T09:34:16.716Z,74724
2016-07-19T09:34:25.465Z,74733
2016-07-19T09:34:34.204Z,74723
2016-07-19T09:34:42.965Z,74735
2016-07-19T09:34:51.683Z,74732
2016-07-19T09:35:00.468Z,74699
2016-07-19T09:35:09.233Z,74704
2016-07-19T09:35:17.991Z,74698
2016-07-19T09:35:26.743Z,74710
2016-07-19T09:35:35.478Z,74704
2016-07-19T09:35:44.232Z,74699
2016-07-19T09:35:52.936Z,74699
2016-07-19T09:36:01.635Z,74706
2016-07-19T09:36:10.311Z,74727
2016-07-19T09:36:19.742Z,74702
2016-07-19T09:36:28.464Z,74711
2016-07-19T09:36:37.187Z,74716
2016-07-19T09:36:45.911Z,74711
2016-07-19T09:36:54.583Z,74717
2016-07-19T09:37:03.376Z,74725
2016-07-19T09:37:12.142Z,74721
2016-07-19T09:37:20.903Z,74705
2016-07-19T09:37:30.343Z,74735
2016-07-19T09:37:39.121Z,74711
2016-07-19T09:37:47.859Z,74729
2016-07-19T09:37:57.538Z,74718
2016-07-19T09:38:07.072Z,74756
2016-07-19T09:38:15.839Z,74794
2016-07-19T09:38:24.642Z,74802
2016-07-19T09:38:33.352Z,74779
2016-07-19T09:38:42.279Z,74810
2016-07-19T09:38:51.037Z,74799
2016-07-19T09:38:59.916Z,74811
2016-07-19T09:39:08.612Z,74810
2016-07-19T09:39:17.350Z,74809
2016-07-19T09:39:26.097Z,74797
2016-07-19T09:39:34.859Z,74805
2016-07-19T09:39:43.528Z,74800
2016-07-19T09:39:52.283Z,74780
2016-07-19T09:40:00.975Z,74794
2016-07-19T09:40:09.789Z,74794
2016-07-19T09:40:18.555Z,74786
2016-07-19T09:40:27.306Z,74773
2016-07-19T09:40:36.021Z,74767
2016-07-19T09:40:44.783Z,74787
2016-07-19T09:40:53.531Z,74763
2016-07-19T09:41:02.268Z,74771
2016-07-19T09:41:11.052Z,74780
2016-07-19T09:41:19.835Z,74767
2016-07-19T09:41:28.560Z,74768
2016-07-19T09:41:37.369Z,74778